KLOT/LOT METAR and TAF weather

Enter ICAO airport designator
Station Type Date Time Source
KLOT METAR 2021/09/24 00:15 UTC NOAA

KLOT 240015Z AUTO 00000KT 10SM CLR 17/03 A2996 RMK AO2 T01710029


Station Type Date Time Source
KLOT Decoded METAR 2021/09/24 00:15 UTC NOAA

Chicago/Romeoville, Lewis University Airport, IL, United States (KLOT) 41-36-30N 088-05-39W
Sep 23, 2021 - 08:15 PM EDT / 2021.09.24 0015 UTC
Wind: Calm:0
Visibility: 10 mile(s):0
Sky conditions: clear
Temperature: 62.8 F (17.1 C)
Dew Point: 37.2 F (2.9 C)
Relative Humidity: 38%
Pressure (altimeter): 29.96 in. Hg (1014 hPa)
ob: KLOT 240015Z AUTO 00000KT 10SM CLR 17/03 A2996 RMK AO2 T01710029
cycle: 0

Station Type Date Time Source
KLOT TAF UTC NOAA

Error!

Example: see airport list